Terminal Aerodrome Forecast
Issued by NWS

Current Version | Previous Version | Text Only | Print | Product List | Glossary Off
Versions: 1 2 3 4 5 6 7 8 9 10 11 12 13 14 15 16 17 18 19 20 21 22

000
FTUS41 KILN 251700
TAFLCK
TAF
KLCK 251730Z 2518/2618 23020G27KT P6SM BKN040
     FM252200 VRB05KT P6SM SCT050
     FM260800 VRB05KT 4SM -SHRA BR OVC040
     FM261000 09007KT 3SM -SHRA BR OVC015
     FM261300 33012G22KT 2SM -SHRA BR OVC010=

USA.gov is the U.S. government's official web portal to all federal, state and local government web resources and services.